Time;durP1;ratioP1;P1;durP2;ratioP2;P2;SDS_P1;SDS_P2;PMS_P1;PMS_P2;Temp;Humidity;BMP_temperature;BMP_pressure;BME280_temperature;BME280_humidity;BME280_pressure;Samples;Min_cycle;Max_cycle;Signal;HPM_P1;HPM_P2
2021/11/28 00:00:31;;;;;;;9.57;8.17;;;2.80;99.70;;;;;;5089838;28;20233;-86
2021/11/28 00:02:58;;;;;;;8.63;7.63;;;2.70;99.90;;;;;;5084119;28;20259;-86
2021/11/28 00:05:25;;;;;;;8.73;7.83;;;2.70;99.90;;;;;;5099113;28;20206;-86
2021/11/28 00:08:10;;;;;;;9.03;7.60;;;2.50;99.90;;;;;;5090299;28;20192;-86
2021/11/28 00:13:10;;;;;;;8.87;7.47;;;2.40;99.90;;;;;;5099982;28;20175;-85
2021/11/28 00:15:37;;;;;;;11.13;7.43;;;2.40;99.90;;;;;;5099011;28;20183;-86
2021/11/28 00:18:04;;;;;;;8.37;7.63;;;2.40;99.90;;;;;;5095077;28;20278;-86
2021/11/28 00:20:30;;;;;;;8.00;6.60;;;2.50;99.90;;;;;;5083121;28;20332;-86
2021/11/28 00:22:56;;;;;;;9.27;6.23;;;2.60;99.90;;;;;;5082389;28;20202;-86
2021/11/28 00:25:21;;;;;;;6.87;5.87;;;2.60;99.90;;;;;;5076792;28;20201;-85
2021/11/28 00:27:49;;;;;;;8.10;6.47;;;2.60;99.80;;;;;;5083269;28;20291;-86
2021/11/28 00:30:18;;;;;;;7.10;5.80;;;2.60;99.90;;;;;;5096479;28;20218;-86
2021/11/28 00:32:44;;;;;;;7.47;6.40;;;2.60;99.20;;;;;;5096371;28;20219;-85
2021/11/28 00:35:10;;;;;;;7.70;6.90;;;2.60;99.60;;;;;;5098741;28;20202;-86
2021/11/28 00:37:36;;;;;;;8.80;6.30;;;2.80;99.90;;;;;;5102853;28;20187;-86
2021/11/28 00:40:04;;;;;;;6.53;5.83;;;2.90;99.90;;;;;;5100217;28;20197;-86
2021/11/28 00:42:29;;;;;;;6.90;6.20;;;3.00;99.40;;;;;;5096169;28;20494;-86
2021/11/28 00:44:55;;;;;;;7.00;6.30;;;3.00;98.50;;;;;;5082508;28;20195;-86
2021/11/28 00:47:21;;;;;;;7.53;6.10;;;3.00;98.80;;;;;;5104187;28;20193;-85
2021/11/28 00:50:02;;;;;;;5.97;5.27;;;3.00;98.90;;;;;;5096321;28;20210;-86
2021/11/28 00:52:28;;;;;;;5.97;5.37;;;3.00;98.90;;;;;;5101564;28;20191;-85
2021/11/28 00:54:54;;;;;;;6.80;5.10;;;3.00;98.60;;;;;;5099199;28;20187;-86
2021/11/28 00:57:19;;;;;;;6.77;5.43;;;3.00;98.30;;;;;;5098160;28;20205;-86
2021/11/28 00:59:45;;;;;;;5.97;5.37;;;3.00;98.80;;;;;;5099362;28;20189;-86
2021/11/28 01:02:11;;;;;;;6.20;5.60;;;2.90;98.70;;;;;;5102196;28;20187;-86
2021/11/28 01:04:38;;;;;;;6.00;5.40;;;2.90;99.50;;;;;;5094306;28;20267;-86
2021/11/28 01:07:03;;;;;;;8.03;5.53;;;2.80;99.50;;;;;;5098273;28;20239;-86
2021/11/28 01:09:29;;;;;;;5.37;4.90;;;3.00;99.30;;;;;;5084137;28;20220;-86
2021/11/28 01:11:55;;;;;;;7.40;5.30;;;3.10;99.30;;;;;;5079091;28;20323;-86
2021/11/28 01:14:21;;;;;;;7.03;6.07;;;3.20;98.70;;;;;;5109557;28;20184;-86
2021/11/28 01:16:47;;;;;;;5.70;4.73;;;3.20;98.70;;;;;;5086060;28;20198;-85
2021/11/28 01:19:12;;;;;;;5.80;4.70;;;3.10;97.90;;;;;;5098471;28;20202;-86
2021/11/28 01:21:56;;;;;;;6.17;5.47;;;3.00;98.40;;;;;;5103730;28;20211;-87
2021/11/28 01:24:21;;;;;;;5.87;5.37;;;3.00;98.80;;;;;;5115326;28;20201;-85
2021/11/28 01:26:48;;;;;;;7.67;4.87;;;3.10;98.80;;;;;;5099484;28;20195;-85
2021/11/28 01:29:14;;;;;;;6.10;5.17;;;3.10;98.50;;;;;;5093759;28;20202;-86
2021/11/28 01:31:40;;;;;;;6.27;5.23;;;3.10;98.50;;;;;;5092223;28;20223;-86
2021/11/28 01:34:07;;;;;;;5.33;4.43;;;3.20;98.30;;;;;;5094269;28;20197;-86
2021/11/28 01:36:34;;;;;;;5.90;5.30;;;3.30;98.10;;;;;;5100000;28;20225;-86
2021/11/28 01:39:01;;;;;;;7.87;5.57;;;3.40;97.50;;;;;;5101874;28;20194;-86
2021/11/28 01:41:26;;;;;;;6.60;5.83;;;3.50;96.50;;;;;;5097073;28;20219;-86
2021/11/28 01:43:53;;;;;;;5.60;5.10;;;3.40;96.70;;;;;;5096654;28;20278;-86
2021/11/28 01:46:20;;;;;;;5.93;5.10;;;3.40;96.00;;;;;;5091319;28;20202;-86
2021/11/28 01:48:47;;;;;;;6.57;5.77;;;3.30;96.00;;;;;;5095368;28;20218;-86
2021/11/28 01:51:13;;;;;;;7.93;5.13;;;3.20;96.80;;;;;;5095646;28;20268;-86
2021/11/28 01:53:39;;;;;;;7.37;4.77;;;3.20;96.80;;;;;;5095746;28;20191;-86
2021/11/28 01:56:05;;;;;;;5.07;4.57;;;3.10;97.50;;;;;;5076053;28;20230;-86
2021/11/28 01:58:31;;;;;;;9.30;4.93;;;3.00;97.90;;;;;;5096358;28;20190;-86
2021/11/28 02:01:00;;;;;;;7.63;4.97;;;2.90;98.50;;;;;;5093700;28;20218;-86
2021/11/28 02:03:27;;;;;;;5.40;4.90;;;2.80;98.60;;;;;;5091615;28;20198;-86
2021/11/28 02:05:58;;;;;;;7.87;5.00;;;2.90;98.80;;;;;;5092955;28;20203;-86
2021/11/28 02:08:25;;;;;;;8.23;5.63;;;2.80;98.90;;;;;;5084844;28;20190;-86
2021/11/28 02:10:51;;;;;;;5.90;5.30;;;2.80;99.20;;;;;;5090907;28;20225;-86
2021/11/28 02:13:18;;;;;;;6.13;5.00;;;2.70;99.70;;;;;;5093290;28;20188;-86
2021/11/28 02:15:44;;;;;;;6.53;5.37;;;2.60;99.90;;;;;;5093137;28;20293;-87
2021/11/28 02:18:11;;;;;;;7.10;5.37;;;2.50;99.90;;;;;;5094420;28;20549;-86
2021/11/28 02:20:51;;;;;;;6.93;5.37;;;2.50;99.90;;;;;;5091914;28;20255;-85
2021/11/28 02:23:17;;;;;;;5.27;4.77;;;2.40;99.90;;;;;;5094649;28;20190;-86
2021/11/28 02:25:43;;;;;;;7.27;5.80;;;2.50;99.90;;;;;;5077726;28;20650;-86
2021/11/28 02:28:09;;;;;;;7.83;4.97;;;2.60;99.90;;;;;;5093701;28;20233;-86
2021/11/28 02:30:35;;;;;;;7.73;5.00;;;2.60;99.90;;;;;;5092843;28;20211;-86
2021/11/28 02:33:01;;;;;;;5.43;4.77;;;2.50;99.90;;;;;;5091797;28;20270;-86
2021/11/28 02:35:30;;;;;;;5.83;5.00;;;2.50;99.90;;;;;;5076282;28;20187;-86
2021/11/28 02:37:57;;;;;;;6.63;4.77;;;2.60;99.90;;;;;;5090773;28;20244;-86
2021/11/28 02:40:24;;;;;;;6.33;4.80;;;2.50;99.90;;;;;;5096117;28;20258;-86
2021/11/28 02:42:52;;;;;;;6.50;5.33;;;2.60;99.90;;;;;;5093765;28;20195;-86
2021/11/28 02:45:20;;;;;;;7.13;5.80;;;2.80;99.90;;;;;;5093505;28;20277;-86
2021/11/28 02:47:46;;;;;;;8.57;5.60;;;2.80;99.90;;;;;;5093635;28;20195;-85
2021/11/28 02:50:15;;;;;;;5.93;5.30;;;2.70;99.90;;;;;;5095979;28;20604;-86
2021/11/28 02:52:44;;;;;;;8.90;5.33;;;2.60;99.90;;;;;;5091488;28;20198;-86
2021/11/28 02:55:10;;;;;;;6.30;5.27;;;2.40;99.90;;;;;;5098313;28;20580;-86
2021/11/28 02:57:36;;;;;;;7.23;5.03;;;2.40;99.90;;;;;;5098133;28;20273;-86
2021/11/28 03:00:04;;;;;;;6.20;5.40;;;2.40;99.90;;;;;;5064121;28;20202;-86
2021/11/28 03:02:30;;;;;;;5.50;4.87;;;2.50;99.90;;;;;;5095024;28;20254;-85
2021/11/28 03:04:56;;;;;;;9.60;5.53;;;2.40;99.90;;;;;;5098193;28;20218;-86
2021/11/28 03:07:22;;;;;;;6.23;5.37;;;2.40;99.90;;;;;;5079683;28;20255;-86
2021/11/28 03:09:47;;;;;;;6.67;5.40;;;2.30;99.90;;;;;;5097619;28;20194;-85
2021/11/28 03:12:14;;;;;;;7.67;5.50;;;2.30;99.90;;;;;;5095790;28;20225;-86
2021/11/28 03:14:40;;;;;;;8.83;5.67;;;2.30;99.90;;;;;;5096837;28;20182;-85
2021/11/28 03:17:07;;;;;;;7.00;5.23;;;2.40;99.90;;;;;;5094348;28;20187;-85
2021/11/28 03:19:32;;;;;;;6.00;5.40;;;2.40;99.90;;;;;;5096400;28;20556;-85
2021/11/28 03:21:59;;;;;;;6.60;5.27;;;2.50;99.90;;;;;;5097989;28;20210;-86
2021/11/28 03:24:25;;;;;;;6.47;5.53;;;2.50;99.90;;;;;;5090520;28;20190;-87
2021/11/28 03:26:52;;;;;;;6.47;5.33;;;2.60;99.90;;;;;;5094275;28;20357;-86
2021/11/28 03:29:20;;;;;;;8.67;5.27;;;2.80;99.90;;;;;;5056016;28;20808;-85
2021/11/28 03:31:51;;;;;;;8.60;5.20;;;2.90;99.50;;;;;;5094576;28;20226;-85
2021/11/28 03:34:18;;;;;;;5.97;5.00;;;3.00;98.80;;;;;;5092364;28;20690;-85
2021/11/28 03:36:49;;;;;;;5.93;4.93;;;3.10;98.50;;;;;;5095335;28;20190;-85
2021/11/28 03:39:15;;;;;;;6.67;5.10;;;3.20;98.40;;;;;;5077461;28;20178;-85
2021/11/28 03:41:47;;;;;;;7.20;5.17;;;3.30;98.10;;;;;;5092609;28;20206;-86
2021/11/28 03:44:14;;;;;;;5.90;4.77;;;3.40;97.70;;;;;;5105120;28;20239;-85
2021/11/28 03:46:39;;;;;;;6.30;4.67;;;3.50;97.80;;;;;;5099770;28;20224;-85
2021/11/28 03:49:05;;;;;;;4.97;4.50;;;3.50;97.00;;;;;;5093427;28;20198;-86
2021/11/28 03:51:32;;;;;;;6.73;4.80;;;3.50;97.10;;;;;;5101741;28;20195;-85
2021/11/28 03:53:58;;;;;;;5.47;4.97;;;3.50;97.10;;;;;;5112857;28;20199;-86
2021/11/28 03:56:25;;;;;;;7.17;4.80;;;3.50;97.00;;;;;;5088258;28;20738;-86
2021/11/28 03:58:52;;;;;;;7.03;4.40;;;3.50;97.10;;;;;;5092847;28;20217;-85
2021/11/28 04:01:19;;;;;;;4.73;4.20;;;3.50;96.70;;;;;;5113205;28;20203;-85
2021/11/28 04:03:45;;;;;;;5.83;5.20;;;3.70;96.30;;;;;;5093370;28;20198;-86
2021/11/28 04:06:12;;;;;;;7.03;4.63;;;3.60;95.80;;;;;;5091160;28;20665;-86
2021/11/28 04:08:39;;;;;;;5.30;4.80;;;3.60;96.00;;;;;;5093431;28;20191;-86
2021/11/28 04:11:05;;;;;;;5.43;4.93;;;3.60;95.80;;;;;;5077305;28;20215;-86
2021/11/28 04:13:30;;;;;;;6.23;4.90;;;3.60;95.50;;;;;;5095700;28;20335;-85
2021/11/28 04:15:56;;;;;;;6.20;5.23;;;3.50;96.20;;;;;;5092964;28;20191;-86
2021/11/28 04:18:22;;;;;;;9.73;5.97;;;3.50;97.20;;;;;;5076828;28;20198;-86
2021/11/28 04:20:49;;;;;;;5.63;5.13;;;3.40;95.80;;;;;;5088121;28;20223;-86
2021/11/28 04:23:15;;;;;;;7.73;6.07;;;3.30;97.00;;;;;;5096123;28;20214;-86
2021/11/28 04:25:41;;;;;;;6.07;5.03;;;3.30;97.30;;;;;;5095069;28;20233;-86
2021/11/28 04:28:07;;;;;;;5.90;4.93;;;3.10;98.40;;;;;;5096408;28;20196;-86
2021/11/28 04:30:33;;;;;;;6.17;5.33;;;3.10;98.30;;;;;;5093911;28;20356;-86
2021/11/28 04:32:59;;;;;;;6.23;5.63;;;3.00;97.90;;;;;;5092371;28;20290;-86
2021/11/28 04:35:25;;;;;;;7.83;5.63;;;3.00;99.00;;;;;;5095242;28;20287;-86
2021/11/28 04:37:51;;;;;;;6.13;5.20;;;3.00;98.90;;;;;;5094578;28;20186;-86
2021/11/28 04:40:17;;;;;;;5.63;5.10;;;3.00;99.10;;;;;;5077213;28;20573;-86
2021/11/28 04:42:43;;;;;;;6.77;5.30;;;3.10;98.60;;;;;;5093960;28;20195;-86
2021/11/28 04:45:12;;;;;;;5.80;5.17;;;3.10;97.90;;;;;;5094244;28;20187;-86
2021/11/28 04:47:38;;;;;;;5.73;5.13;;;3.10;98.20;;;;;;5093395;28;20187;-86
2021/11/28 04:50:06;;;;;;;6.53;5.40;;;3.00;98.60;;;;;;5091582;28;20215;-86
2021/11/28 04:52:32;;;;;;;5.77;4.90;;;3.00;98.80;;;;;;5094244;28;20654;-85
2021/11/28 04:54:58;;;;;;;6.03;4.80;;;3.00;99.30;;;;;;5087653;28;20195;-86
2021/11/28 04:57:23;;;;;;;5.97;5.37;;;2.90;99.20;;;;;;5094616;28;20426;-86
2021/11/28 04:59:49;;;;;;;6.37;5.73;;;2.70;99.00;;;;;;5096052;28;20179;-86
2021/11/28 05:02:15;;;;;;;6.03;5.43;;;2.60;99.90;;;;;;5092539;28;20588;-86
2021/11/28 05:04:41;;;;;;;5.57;5.00;;;2.50;99.90;;;;;;5093871;28;20285;-86
2021/11/28 05:07:07;;;;;;;10.07;5.60;;;2.40;99.90;;;;;;5092305;28;20191;-86
2021/11/28 05:09:33;;;;;;;5.97;5.37;;;2.50;99.90;;;;;;5092844;28;20625;-86
2021/11/28 05:11:59;;;;;;;7.97;5.67;;;2.60;99.90;;;;;;5091335;28;20245;-86
2021/11/28 05:14:24;;;;;;;8.20;5.50;;;2.60;99.90;;;;;;5094110;28;20763;-86
2021/11/28 05:16:50;;;;;;;6.60;5.20;;;2.60;99.90;;;;;;5092937;28;20210;-86
2021/11/28 05:19:17;;;;;;;6.80;5.20;;;2.60;99.90;;;;;;5091977;28;20183;-86
2021/11/28 05:21:43;;;;;;;6.50;4.93;;;2.50;99.90;;;;;;5091091;28;20630;-85
2021/11/28 05:24:09;;;;;;;6.03;5.20;;;2.60;99.90;;;;;;5095634;28;20599;-85
2021/11/28 05:26:35;;;;;;;5.67;5.17;;;2.70;99.90;;;;;;5091847;28;20186;-85
2021/11/28 05:29:01;;;;;;;5.37;4.87;;;2.70;99.90;;;;;;5073863;28;20249;-86
2021/11/28 05:31:26;;;;;;;7.27;5.33;;;2.70;99.90;;;;;;5095677;28;20263;-86
2021/11/28 05:33:53;;;;;;;6.07;5.27;;;2.80;99.70;;;;;;5058459;28;20214;-85
2021/11/28 05:36:19;;;;;;;5.57;4.53;;;2.80;99.70;;;;;;5086337;28;20187;-85
2021/11/28 05:38:45;;;;;;;6.00;5.20;;;2.80;99.90;;;;;;5094604;28;20208;-85
2021/11/28 05:41:11;;;;;;;6.00;5.40;;;2.80;99.90;;;;;;5092538;28;20211;-86
2021/11/28 05:43:40;;;;;;;6.70;5.80;;;2.80;99.90;;;;;;5091221;28;20740;-85
2021/11/28 05:46:06;;;;;;;9.60;7.07;;;2.80;99.20;;;;;;5090806;28;20195;-85
2021/11/28 05:48:32;;;;;;;10.87;8.10;;;2.60;99.90;;;;;;5094533;28;20194;-85
2021/11/28 05:50:59;;;;;;;10.20;7.90;;;2.50;99.90;;;;;;5093144;28;20219;-85
2021/11/28 05:53:25;;;;;;;7.87;6.60;;;2.30;99.90;;;;;;5093444;28;20201;-86
2021/11/28 05:55:52;;;;;;;7.80;6.80;;;2.20;99.90;;;;;;5092804;28;20266;-85
2021/11/28 05:58:18;;;;;;;8.13;6.87;;;2.30;99.90;;;;;;5092963;28;20278;-85
2021/11/28 06:00:44;;;;;;;6.50;5.70;;;2.30;99.90;;;;;;5092258;28;20623;-85
2021/11/28 06:03:10;;;;;;;7.13;5.60;;;2.30;99.90;;;;;;5093837;28;20248;-85
2021/11/28 06:05:41;;;;;;;6.50;5.80;;;2.30;99.90;;;;;;5101992;28;20191;-85
2021/11/28 06:08:07;;;;;;;6.93;5.37;;;2.40;99.90;;;;;;5093671;28;20266;-86
2021/11/28 06:10:32;;;;;;;7.93;5.87;;;2.60;99.90;;;;;;5091953;28;20226;-85
2021/11/28 06:12:58;;;;;;;6.70;5.33;;;2.60;99.90;;;;;;5094914;28;20198;-85
2021/11/28 06:15:24;;;;;;;7.97;5.50;;;2.60;99.90;;;;;;5093060;28;20186;-85
2021/11/28 06:17:50;;;;;;;6.30;5.60;;;2.60;99.90;;;;;;5094318;28;20194;-85
2021/11/28 06:20:15;;;;;;;6.07;5.47;;;2.60;99.90;;;;;;5091916;28;20244;-86
2021/11/28 06:22:41;;;;;;;7.77;5.83;;;2.60;99.90;;;;;;5090024;28;20258;-86
2021/11/28 06:25:07;;;;;;;7.73;5.77;;;2.60;99.90;;;;;;5074061;28;20213;-86
2021/11/28 06:27:33;;;;;;;5.97;5.47;;;2.50;99.90;;;;;;5093888;28;20190;-86
2021/11/28 06:29:59;;;;;;;6.93;6.23;;;2.40;99.90;;;;;;5089191;28;20345;-85
2021/11/28 06:32:25;;;;;;;8.57;6.50;;;2.40;99.90;;;;;;5108178;28;20652;-86
2021/11/28 06:34:51;;;;;;;6.70;5.53;;;2.40;99.90;;;;;;5093837;28;20195;-86
2021/11/28 06:37:17;;;;;;;6.50;5.80;;;2.50;99.90;;;;;;5100253;28;20218;-85
2021/11/28 06:39:42;;;;;;;5.63;5.00;;;2.50;99.90;;;;;;5116192;28;20600;-84
2021/11/28 06:42:08;;;;;;;6.63;5.80;;;2.50;99.90;;;;;;5107257;28;20282;-85
2021/11/28 06:44:34;;;;;;;7.33;5.30;;;2.50;99.90;;;;;;5078274;28;20201;-85
2021/11/28 06:47:00;;;;;;;7.17;5.30;;;2.60;99.90;;;;;;5095196;28;20199;-86
2021/11/28 06:49:27;;;;;;;5.77;4.87;;;2.80;99.50;;;;;;5093733;28;20286;-86
2021/11/28 06:51:56;;;;;;;6.30;5.70;;;2.90;98.60;;;;;;5096120;28;20211;-86
2021/11/28 06:54:22;;;;;;;6.27;5.67;;;3.00;97.70;;;;;;5091213;28;20191;-86
2021/11/28 06:56:49;;;;;;;5.77;4.83;;;3.00;97.50;;;;;;5090785;28;20743;-86
2021/11/28 06:59:15;;;;;;;6.87;5.00;;;3.00;97.40;;;;;;5093922;28;20182;-86
2021/11/28 07:01:41;;;;;;;7.23;4.83;;;3.00;97.60;;;;;;5092249;28;20214;-86
2021/11/28 07:04:06;;;;;;;5.57;5.07;;;3.00;97.50;;;;;;5089953;28;20197;-86
2021/11/28 07:06:32;;;;;;;5.40;4.90;;;2.90;97.10;;;;;;5091425;28;20411;-86
2021/11/28 07:08:58;;;;;;;5.90;5.23;;;2.80;97.40;;;;;;5075104;28;20543;-86
2021/11/28 07:11:24;;;;;;;6.67;4.87;;;2.80;97.90;;;;;;5093353;28;20218;-86
2021/11/28 07:13:51;;;;;;;6.70;5.20;;;2.70;98.10;;;;;;5092589;28;20183;-86
2021/11/28 07:16:17;;;;;;;5.17;4.33;;;2.60;98.90;;;;;;5091115;28;20273;-86
2021/11/28 07:18:44;;;;;;;6.83;5.70;;;2.70;99.10;;;;;;5091129;28;20183;-85
2021/11/28 07:21:14;;;;;;;5.43;4.70;;;2.80;98.50;;;;;;5075381;28;20214;-86
2021/11/28 07:23:40;;;;;;;6.00;4.30;;;2.90;98.40;;;;;;5072439;28;20221;-85
2021/11/28 07:26:07;;;;;;;6.13;4.77;;;2.90;97.50;;;;;;5092831;28;20207;-85
2021/11/28 07:28:33;;;;;;;5.67;4.80;;;3.00;97.20;;;;;;5049456;28;1165963;-86
2021/11/28 07:30:59;;;;;;;5.17;4.67;;;2.90;98.40;;;;;;5092473;28;20230;-85
2021/11/28 07:33:25;;;;;;;4.57;4.10;;;3.00;97.70;;;;;;5071668;28;20516;-86
2021/11/28 07:35:50;;;;;;;7.47;5.10;;;3.10;97.30;;;;;;5092699;28;20205;-85
2021/11/28 07:38:16;;;;;;;5.13;4.70;;;3.10;97.50;;;;;;5083284;28;20202;-85
2021/11/28 07:40:42;;;;;;;6.53;4.87;;;3.20;96.60;;;;;;5103180;28;20199;-86
2021/11/28 07:43:07;;;;;;;5.43;4.80;;;3.00;97.00;;;;;;5074946;28;20248;-87
2021/11/28 07:45:33;;;;;;;7.20;4.90;;;3.00;97.50;;;;;;5090694;28;20206;-86
2021/11/28 07:47:59;;;;;;;4.97;4.50;;;3.00;97.70;;;;;;5094381;28;20183;-86
2021/11/28 07:50:25;;;;;;;5.77;4.47;;;3.00;98.60;;;;;;5092999;28;20625;-86
2021/11/28 07:52:52;;;;;;;5.67;5.07;;;3.10;98.20;;;;;;5092221;28;20239;-86
2021/11/28 07:55:17;;;;;;;5.23;4.40;;;3.10;97.90;;;;;;5093913;28;20297;-86
2021/11/28 07:57:44;;;;;;;5.10;4.60;;;3.10;97.80;;;;;;5093194;28;20287;-86
2021/11/28 08:00:10;;;;;;;5.87;4.60;;;3.10;97.80;;;;;;5093154;28;20256;-87
2021/11/28 08:02:36;;;;;;;5.47;4.97;;;3.00;97.80;;;;;;5094638;28;20198;-86
2021/11/28 08:05:02;;;;;;;7.30;4.50;;;3.10;98.20;;;;;;5092952;28;20534;-86
2021/11/28 08:07:28;;;;;;;5.00;4.60;;;3.20;98.00;;;;;;5095277;28;20265;-86
2021/11/28 08:09:54;;;;;;;5.83;4.90;;;3.30;97.50;;;;;;5074794;28;20203;-86
2021/11/28 08:12:21;;;;;;;5.83;4.50;;;3.40;96.80;;;;;;5102272;28;20171;-86
2021/11/28 08:14:47;;;;;;;5.57;4.60;;;3.40;97.00;;;;;;5076440;28;20190;-86
2021/11/28 08:17:13;;;;;;;5.43;4.50;;;3.40;96.30;;;;;;5092270;28;20341;-86
2021/11/28 08:19:40;;;;;;;6.63;4.77;;;3.50;96.10;;;;;;5096620;28;20182;-86
2021/11/28 08:22:07;;;;;;;5.50;4.77;;;3.50;96.10;;;;;;5098544;28;20238;-87
2021/11/28 08:24:33;;;;;;;6.13;4.53;;;3.50;96.10;;;;;;5078824;28;20297;-86
2021/11/28 08:26:59;;;;;;;7.57;4.37;;;3.60;96.00;;;;;;5104399;28;20210;-86
2021/11/28 08:29:25;;;;;;;5.40;4.90;;;3.60;96.30;;;;;;5097770;28;20206;-87
2021/11/28 08:31:51;;;;;;;5.67;4.37;;;3.70;95.10;;;;;;5092133;28;20215;-86
2021/11/28 08:34:17;;;;;;;5.63;4.57;;;3.60;95.50;;;;;;5092515;28;20198;-87
2021/11/28 08:36:43;;;;;;;5.60;4.43;;;3.60;95.60;;;;;;5092766;28;20183;-86
2021/11/28 08:39:09;;;;;;;6.33;4.37;;;3.50;96.00;;;;;;5088987;28;20210;-86
2021/11/28 08:41:34;;;;;;;7.40;5.77;;;3.50;96.10;;;;;;5092642;28;20310;-86
2021/11/28 08:44:00;;;;;;;7.43;6.43;;;3.40;97.40;;;;;;5078719;28;20194;-86
2021/11/28 08:46:26;;;;;;;9.27;7.20;;;3.30;98.60;;;;;;5086832;28;20213;-87
2021/11/28 08:48:54;;;;;;;8.57;6.83;;;3.20;99.90;;;;;;5073488;28;20209;-86
2021/11/28 08:51:21;;;;;;;9.63;7.37;;;3.30;99.90;;;;;;5071972;28;20211;-86
2021/11/28 08:53:47;;;;;;;7.73;6.63;;;3.40;99.90;;;;;;5093270;28;20194;-87
2021/11/28 08:56:13;;;;;;;10.40;6.43;;;3.40;99.90;;;;;;5057515;28;20195;-86
2021/11/28 08:58:39;;;;;;;6.67;6.07;;;3.20;99.80;;;;;;5095224;28;20906;-87
2021/11/28 09:01:05;;;;;;;10.10;7.50;;;3.20;99.90;;;;;;5092461;28;20310;-86
2021/11/28 09:03:30;;;;;;;9.33;6.90;;;3.10;99.90;;;;;;5096934;28;20323;-87
2021/11/28 09:05:56;;;;;;;9.50;6.93;;;3.10;99.90;;;;;;5093567;28;20244;-86
2021/11/28 09:08:23;;;;;;;11.50;9.13;;;3.10;99.90;;;;;;5093499;28;20186;-86
2021/11/28 09:10:49;;;;;;;10.07;7.97;;;3.00;99.90;;;;;;5106601;28;20219;-86
2021/11/28 09:13:15;;;;;;;9.07;7.33;;;3.00;99.90;;;;;;5101810;28;20185;-86
2021/11/28 09:15:41;;;;;;;8.47;7.40;;;3.30;99.90;;;;;;5075584;28;20190;-85
2021/11/28 09:18:13;;;;;;;9.87;7.33;;;3.30;99.90;;;;;;5104349;28;20178;-85
2021/11/28 09:20:43;;;;;;;9.20;6.50;;;3.40;99.90;;;;;;5094024;28;20282;-86
2021/11/28 09:25:35;;;;;;;10.37;6.47;;;3.30;99.90;;;;;;5099055;28;20183;-86
2021/11/28 09:28:02;;;;;;;7.03;6.30;;;3.60;99.90;;;;;;5092516;28;20198;-86
2021/11/28 09:30:29;;;;;;;8.50;6.00;;;3.50;99.90;;;;;;5092074;28;20255;-86
2021/11/28 09:32:57;;;;;;;7.43;6.60;;;3.40;99.90;;;;;;5094051;28;20774;-86
2021/11/28 09:35:24;;;;;;;7.70;6.80;;;3.40;99.90;;;;;;5071189;28;20383;-86
2021/11/28 09:37:52;;;;;;;7.77;6.17;;;3.30;99.90;;;;;;5072089;28;20194;-86
2021/11/28 09:40:18;;;;;;;6.87;5.80;;;3.50;99.90;;;;;;5095149;28;20199;-86
2021/11/28 09:42:56;;;;;;;7.33;6.23;;;3.50;99.90;;;;;;5094449;28;20195;-86
2021/11/28 09:45:23;;;;;;;6.70;5.90;;;3.60;99.90;;;;;;5091600;28;20195;-87
2021/11/28 09:47:49;;;;;;;7.07;6.37;;;3.60;99.90;;;;;;5090942;28;20195;-86
2021/11/28 09:50:16;;;;;;;6.97;6.27;;;3.60;99.90;;;;;;5092679;28;20206;-86
2021/11/28 09:52:43;;;;;;;7.43;6.10;;;3.50;99.90;;;;;;5090709;28;20276;-86
2021/11/28 09:55:11;;;;;;;9.37;6.10;;;3.50;99.90;;;;;;5094106;28;20198;-86
2021/11/28 09:57:38;;;;;;;7.67;5.60;;;3.50;99.90;;;;;;5076924;28;20182;-86
2021/11/28 10:00:07;;;;;;;6.60;5.90;;;3.60;99.90;;;;;;5091823;28;20275;-86
2021/11/28 10:02:35;;;;;;;7.20;5.33;;;3.50;99.90;;;;;;5071651;28;20193;-86
2021/11/28 10:05:04;;;;;;;6.13;4.70;;;3.60;99.70;;;;;;5095779;28;20193;-86
2021/11/28 10:07:30;;;;;;;5.47;4.97;;;3.70;98.30;;;;;;5090947;28;20191;-86
2021/11/28 10:09:57;;;;;;;6.90;5.60;;;3.90;97.90;;;;;;5092078;28;20198;-86
2021/11/28 10:12:26;;;;;;;6.90;5.40;;;4.00;97.20;;;;;;5093250;28;20277;-86
2021/11/28 10:14:58;;;;;;;5.47;4.93;;;3.90;98.10;;;;;;5093936;28;20201;-86
2021/11/28 10:17:29;;;;;;;9.10;5.33;;;3.90;97.70;;;;;;5073421;28;20191;-86
2021/11/28 10:20:00;;;;;;;4.87;4.30;;;4.00;97.10;;;;;;5093767;28;20186;-86
2021/11/28 10:22:26;;;;;;;6.43;4.87;;;4.10;96.70;;;;;;5091697;28;20568;-86
2021/11/28 10:24:53;;;;;;;7.47;4.40;;;4.00;96.90;;;;;;5056125;28;20186;-86
2021/11/28 10:27:29;;;;;;;5.10;4.40;;;4.00;96.70;;;;;;5088663;28;20187;-86
2021/11/28 10:29:55;;;;;;;5.27;4.47;;;4.10;96.70;;;;;;5091701;28;20195;-86
2021/11/28 10:32:23;;;;;;;4.87;4.37;;;4.10;96.00;;;;;;5091773;28;20194;-86
2021/11/28 10:34:49;;;;;;;6.03;4.63;;;4.00;96.10;;;;;;5093388;28;20261;-86
2021/11/28 10:37:20;;;;;;;6.67;4.67;;;4.30;96.70;;;;;;5092590;28;20192;-86
2021/11/28 10:39:47;;;;;;;6.73;4.07;;;4.20;95.90;;;;;;5088933;28;20231;-86
2021/11/28 10:42:24;;;;;;;4.80;4.30;;;4.00;97.30;;;;;;5096352;28;20249;-86
2021/11/28 10:45:14;;;;;;;5.40;4.90;;;4.30;94.50;;;;;;5096448;28;20226;-86
2021/11/28 10:47:52;;;;;;;5.30;4.80;;;4.30;94.60;;;;;;5096970;28;20654;-86
2021/11/28 10:50:30;;;;;;;6.20;4.80;;;4.30;95.20;;;;;;5080737;28;20929;-86
2021/11/28 10:53:07;;;;;;;5.50;4.60;;;4.60;93.50;;;;;;5093246;28;20186;-87
2021/11/28 10:55:36;;;;;;;6.77;5.13;;;4.60;93.00;;;;;;5090784;28;20187;-87
2021/11/28 10:58:12;;;;;;;5.23;4.53;;;4.50;94.10;;;;;;5089055;28;20194;-87
2021/11/28 11:00:40;;;;;;;5.10;4.60;;;4.30;95.70;;;;;;5090572;28;20210;-87
2021/11/28 11:03:21;;;;;;;5.37;4.87;;;4.40;96.10;;;;;;5091362;28;20195;-87
2021/11/28 11:05:49;;;;;;;5.43;4.90;;;4.40;97.30;;;;;;5088201;28;20198;-87
2021/11/28 11:08:16;;;;;;;4.40;3.83;;;4.50;95.20;;;;;;5092067;28;20608;-87
2021/11/28 11:10:46;;;;;;;5.63;4.27;;;4.70;93.50;;;;;;5094850;28;20211;-87
2021/11/28 11:13:16;;;;;;;4.37;3.87;;;4.60;94.40;;;;;;5085197;28;20639;-87
2021/11/28 11:15:46;;;;;;;5.57;4.37;;;4.30;95.10;;;;;;5090949;28;20278;-88
2021/11/28 11:18:18;;;;;;;5.60;4.20;;;4.50;94.70;;;;;;5096498;28;20187;-88
2021/11/28 11:20:50;;;;;;;5.73;4.00;;;4.60;93.80;;;;;;5095026;28;20217;-88
2021/11/28 11:23:39;;;;;;;5.30;3.97;;;4.50;94.70;;;;;;5078076;28;20392;-88
2021/11/28 11:26:21;;;;;;;4.10;3.70;;;4.60;94.90;;;;;;5097058;28;20196;-88
2021/11/28 11:29:17;;;;;;;4.10;3.63;;;4.60;92.70;;;;;;5089452;28;20682;-88
2021/11/28 11:31:53;;;;;;;4.90;3.70;;;4.50;94.30;;;;;;5078450;28;20318;-88
2021/11/28 11:34:31;;;;;;;3.50;3.20;;;4.70;92.80;;;;;;5092745;28;20186;-88
2021/11/28 11:37:03;;;;;;;5.77;3.97;;;4.80;91.80;;;;;;5083306;28;20191;-87
2021/11/28 11:39:32;;;;;;;4.17;3.67;;;4.80;91.70;;;;;;5092531;28;20188;-88
2021/11/28 11:41:58;;;;;;;4.90;3.77;;;4.80;91.10;;;;;;5072601;28;20214;-88
2021/11/28 11:44:25;;;;;;;5.80;4.30;;;4.80;90.70;;;;;;5095876;28;20351;-88
2021/11/28 11:46:52;;;;;;;4.73;3.70;;;4.80;91.40;;;;;;5094718;28;20191;-88
2021/11/28 11:49:18;;;;;;;7.23;4.37;;;4.60;92.90;;;;;;5114922;28;20340;-89
2021/11/28 11:51:47;;;;;;;7.00;4.00;;;4.60;94.50;;;;;;5108346;28;20222;-88
2021/11/28 11:54:21;;;;;;;4.47;4.03;;;4.50;93.80;;;;;;5100202;28;20223;-88
2021/11/28 11:56:48;;;;;;;4.20;3.83;;;4.70;91.90;;;;;;5096281;28;20189;-89
2021/11/28 11:59:40;;;;;;;6.53;4.00;;;4.90;91.40;;;;;;5095866;28;20190;-88
2021/11/28 12:02:06;;;;;;;4.20;3.80;;;4.80;92.60;;;;;;5078007;28;20720;-88
2021/11/28 12:04:45;;;;;;;3.97;3.57;;;4.80;91.00;;;;;;5084081;28;20207;-88
2021/11/28 12:07:10;;;;;;;4.27;3.83;;;4.90;91.30;;;;;;5100208;28;20171;-88
2021/11/28 12:09:37;;;;;;;4.40;4.00;;;4.90;90.50;;;;;;5091108;28;20609;-88
2021/11/28 12:12:08;;;;;;;4.60;3.93;;;5.00;89.40;;;;;;5093749;28;20551;-88
2021/11/28 12:14:37;;;;;;;4.20;3.63;;;4.80;90.90;;;;;;5092810;28;20217;-88
2021/11/28 12:17:38;;;;;;;4.63;3.90;;;4.60;92.00;;;;;;5087353;28;20206;-88
2021/11/28 12:20:05;;;;;;;4.90;4.40;;;4.60;93.60;;;;;;5091315;28;20179;-88
2021/11/28 12:22:39;;;;;;;6.10;5.20;;;4.70;94.20;;;;;;5095409;28;20304;-88
2021/11/28 12:25:40;;;;;;;6.47;4.40;;;4.70;92.60;;;;;;5099962;28;20171;-88
2021/11/28 12:28:20;;;;;;;4.07;3.50;;;4.60;92.20;;;;;;5095124;28;20198;-88
2021/11/28 12:30:54;;;;;;;4.30;3.90;;;4.50;92.80;;;;;;5097085;28;20214;-88
2021/11/28 12:33:19;;;;;;;5.73;4.27;;;4.60;93.70;;;;;;5090733;28;20192;-88
2021/11/28 12:35:46;;;;;;;6.27;5.20;;;4.50;92.90;;;;;;5091508;28;20176;-87
2021/11/28 12:38:12;;;;;;;5.43;4.20;;;4.80;92.30;;;;;;5095050;28;20174;-88
2021/11/28 12:40:45;;;;;;;4.57;3.80;;;4.80;92.10;;;;;;5074578;28;20211;-88
2021/11/28 12:43:22;;;;;;;5.20;3.43;;;4.90;91.50;;;;;;5092508;28;20198;-88
2021/11/28 12:45:49;;;;;;;7.10;4.00;;;5.00;89.80;;;;;;5094403;28;20247;-89
2021/11/28 12:48:17;;;;;;;4.73;3.90;;;5.00;89.70;;;;;;5090739;28;20780;-88
2021/11/28 12:50:51;;;;;;;4.30;3.57;;;4.90;90.70;;;;;;5093428;28;20215;-89
2021/11/28 12:53:26;;;;;;;4.97;4.47;;;4.70;91.00;;;;;;5076073;28;20182;-88
2021/11/28 12:56:16;;;;;;;6.07;4.37;;;4.70;91.20;;;;;;5096020;28;20190;-89
2021/11/28 12:59:10;;;;;;;5.57;4.27;;;4.70;92.90;;;;;;5083062;28;20202;-89
2021/11/28 13:01:50;;;;;;;4.00;3.60;;;4.50;94.70;;;;;;5097426;28;20630;-88
2021/11/28 13:04:40;;;;;;;122.43;88.00;;;4.60;92.80;;;;;;5097594;28;20289;-89
2021/11/28 13:07:28;;;;;;;8.30;6.90;;;4.70;93.10;;;;;;5097192;28;20541;-89